Time;durP1;ratioP1;P1;durP2;ratioP2;P2;SDS_P1;SDS_P2;PMS_P1;PMS_P2;Temp;Humidity;BMP_temperature;BMP_pressure;BME280_temperature;BME280_humidity;BME280_pressure;Samples;Min_cycle;Max_cycle;Signal;HPM_P1;HPM_P2
2021/10/12 00:01:30;;;;;;;13.20;3.03;;;9.50;91.10;;;;;;4978041;28;20193;-92
2021/10/12 00:03:56;;;;;;;11.87;2.30;;;9.60;91.20;;;;;;4977889;28;20202;-92
2021/10/12 00:06:22;;;;;;;10.00;2.67;;;9.60;91.20;;;;;;4994815;28;20252;-91
2021/10/12 00:08:47;;;;;;;15.10;3.20;;;9.60;91.20;;;;;;4977575;28;20178;-90
2021/10/12 00:11:13;;;;;;;17.27;3.40;;;9.60;91.50;;;;;;4994816;28;20264;-92
2021/10/12 00:13:39;;;;;;;11.00;2.40;;;9.60;91.70;;;;;;4977339;28;20206;-92
2021/10/12 00:16:05;;;;;;;9.60;2.20;;;9.60;91.70;;;;;;4977141;28;20181;-92
2021/10/12 00:18:30;;;;;;;13.47;2.30;;;9.60;91.60;;;;;;4977132;28;20646;-91
2021/10/12 00:20:56;;;;;;;8.43;2.53;;;9.60;91.50;;;;;;4977147;28;20184;-92
2021/10/12 00:23:22;;;;;;;9.73;2.13;;;9.50;91.50;;;;;;4977227;28;20269;-91
2021/10/12 00:25:47;;;;;;;12.90;3.70;;;9.50;91.70;;;;;;4977043;28;20178;-92
2021/10/12 00:28:13;;;;;;;11.60;2.77;;;9.50;91.90;;;;;;4976911;28;20189;-92
2021/10/12 00:30:40;;;;;;;7.27;2.57;;;9.50;92.00;;;;;;4977051;28;20187;-92
2021/10/12 00:33:06;;;;;;;12.13;2.73;;;9.60;92.00;;;;;;4977116;28;20189;-92
2021/10/12 00:35:31;;;;;;;19.33;3.10;;;9.50;92.00;;;;;;4977206;28;20205;-92
2021/10/12 00:37:57;;;;;;;9.97;3.00;;;9.60;92.10;;;;;;4977030;28;20233;-92
2021/10/12 00:40:23;;;;;;;11.90;2.67;;;9.60;92.10;;;;;;4976936;28;20235;-92
2021/10/12 00:42:49;;;;;;;9.33;3.47;;;9.60;92.20;;;;;;4976785;28;20214;-91
2021/10/12 00:45:17;;;;;;;15.97;3.17;;;9.60;92.20;;;;;;4976635;28;20210;-92
2021/10/12 00:48:00;;;;;;;12.33;2.63;;;9.70;92.30;;;;;;4976817;28;20654;-92
2021/10/12 00:50:28;;;;;;;12.13;2.63;;;9.60;92.60;;;;;;4977255;28;20262;-92
2021/10/12 00:52:54;;;;;;;9.80;2.23;;;9.70;92.60;;;;;;4976798;28;20204;-93
2021/10/12 00:55:20;;;;;;;5.67;1.27;;;9.70;92.50;;;;;;4977303;28;20207;-93
2021/10/12 00:57:45;;;;;;;6.27;1.70;;;9.70;92.30;;;;;;4976687;28;20738;-92
2021/10/12 01:00:12;;;;;;;6.83;1.37;;;9.70;92.00;;;;;;4976663;28;20189;-91
2021/10/12 01:02:37;;;;;;;7.33;1.40;;;9.80;91.80;;;;;;4993588;28;20181;-90
2021/10/12 01:05:08;;;;;;;6.00;1.40;;;9.70;91.80;;;;;;4976403;28;20686;-91
2021/10/12 01:07:34;;;;;;;5.30;1.60;;;9.80;91.60;;;;;;4993819;28;20181;-91
2021/10/12 01:10:00;;;;;;;13.33;1.50;;;9.80;91.60;;;;;;4976367;28;20654;-91
2021/10/12 01:12:25;;;;;;;9.47;1.50;;;9.80;91.50;;;;;;4976971;28;20193;-92
2021/10/12 01:14:51;;;;;;;6.33;1.30;;;9.70;91.50;;;;;;4992851;28;20736;-92
2021/10/12 01:17:17;;;;;;;5.93;1.20;;;9.70;91.70;;;;;;4977192;28;20268;-90
2021/10/12 01:19:46;;;;;;;10.13;1.60;;;9.70;91.90;;;;;;4976298;28;20186;-90
2021/10/12 01:22:12;;;;;;;5.40;1.30;;;9.70;92.00;;;;;;4976502;28;20556;-91
2021/10/12 01:24:38;;;;;;;4.37;1.40;;;9.70;92.00;;;;;;4976231;28;20205;-91
2021/10/12 01:27:03;;;;;;;11.87;1.80;;;9.60;92.20;;;;;;4976284;28;20189;-91
2021/10/12 01:29:29;;;;;;;6.20;1.40;;;9.50;92.60;;;;;;4976254;28;20189;-92
2021/10/12 01:31:55;;;;;;;10.93;1.90;;;9.50;92.70;;;;;;4976395;28;20269;-91
2021/10/12 01:34:21;;;;;;;11.77;2.43;;;9.50;92.80;;;;;;4993682;28;20260;-90
2021/10/12 01:36:49;;;;;;;7.03;1.60;;;9.50;92.80;;;;;;4976460;28;20179;-91
2021/10/12 01:39:16;;;;;;;8.57;1.97;;;9.50;92.90;;;;;;4992616;28;20182;-91
2021/10/12 01:41:42;;;;;;;6.97;1.63;;;9.50;92.80;;;;;;4976119;28;20185;-90
2021/10/12 01:44:17;;;;;;;5.60;1.90;;;9.50;92.80;;;;;;4976062;28;20234;-90
2021/10/12 01:46:43;;;;;;;7.53;1.73;;;9.50;92.70;;;;;;4976662;28;20265;-91
2021/10/12 01:49:09;;;;;;;9.93;2.53;;;9.50;92.60;;;;;;4976081;28;20265;-91
2021/10/12 01:51:36;;;;;;;6.90;1.87;;;9.50;92.50;;;;;;5007668;23;20330;-89
2021/10/12 01:54:02;;;;;;;6.20;2.00;;;9.50;92.50;;;;;;5032845;28;20665;-90
2021/10/12 01:56:29;;;;;;;5.47;1.23;;;9.60;92.30;;;;;;5016110;28;20180;-90
2021/10/12 01:58:55;;;;;;;3.97;1.33;;;9.50;92.30;;;;;;5015128;28;20211;-89
2021/10/12 02:01:22;;;;;;;6.13;1.30;;;9.50;92.20;;;;;;5015065;28;20173;-89
2021/10/12 02:03:48;;;;;;;3.50;1.70;;;9.50;92.20;;;;;;5032738;28;20196;-89
2021/10/12 02:06:14;;;;;;;6.07;1.53;;;9.40;92.10;;;;;;5015718;28;20176;-89
2021/10/12 02:08:40;;;;;;;5.83;1.77;;;9.40;91.90;;;;;;5033594;28;20692;-89
2021/10/12 02:11:06;;;;;;;8.63;1.87;;;9.40;91.80;;;;;;5015056;28;20180;-90
2021/10/12 02:13:31;;;;;;;6.47;1.27;;;9.40;91.90;;;;;;5033734;28;20174;-90
2021/10/12 02:15:57;;;;;;;3.00;1.50;;;9.40;91.70;;;;;;5018889;28;20206;-90
2021/10/12 02:18:23;;;;;;;7.97;1.63;;;9.40;91.70;;;;;;5018547;28;20267;-90
2021/10/12 02:20:49;;;;;;;5.70;1.40;;;9.40;91.60;;;;;;5018869;28;20269;-90
2021/10/12 02:23:15;;;;;;;4.40;1.80;;;9.30;91.80;;;;;;5036202;28;20185;-90
2021/10/12 02:25:41;;;;;;;5.57;1.20;;;9.30;91.90;;;;;;5018488;28;20231;-89
2021/10/12 02:28:07;;;;;;;11.13;1.93;;;9.30;91.90;;;;;;5018364;28;20177;-90
2021/10/12 02:30:32;;;;;;;5.17;1.33;;;9.30;91.70;;;;;;5036053;28;20177;-90
2021/10/12 02:32:58;;;;;;;6.17;1.80;;;9.30;91.50;;;;;;5018360;28;20582;-90
2021/10/12 02:35:24;;;;;;;3.30;1.53;;;9.30;91.40;;;;;;5018264;28;20681;-89
2021/10/12 02:37:49;;;;;;;5.03;2.10;;;9.30;91.20;;;;;;5018268;28;20173;-89
2021/10/12 02:40:15;;;;;;;4.53;1.10;;;9.30;91.10;;;;;;5018159;28;20174;-89
2021/10/12 02:42:41;;;;;;;5.27;1.37;;;9.30;91.20;;;;;;5018269;28;20189;-89
2021/10/12 02:45:07;;;;;;;4.23;1.10;;;9.30;91.30;;;;;;5018024;28;20210;-90
2021/10/12 02:47:34;;;;;;;9.73;1.77;;;9.30;91.30;;;;;;5017929;28;20186;-89
2021/10/12 02:50:01;;;;;;;4.87;1.50;;;9.30;91.00;;;;;;5017895;28;20657;-89
2021/10/12 02:52:26;;;;;;;2.37;1.30;;;9.30;91.00;;;;;;5018107;28;20263;-90
2021/10/12 02:54:52;;;;;;;1.53;0.90;;;9.30;91.00;;;;;;5017830;28;20196;-89
2021/10/12 02:57:18;;;;;;;2.87;1.00;;;9.30;91.00;;;;;;5017964;28;20599;-90
2021/10/12 02:59:43;;;;;;;5.27;1.00;;;9.30;91.00;;;;;;5018272;28;20176;-89
2021/10/12 03:02:09;;;;;;;2.73;0.97;;;9.30;90.90;;;;;;5017682;28;20193;-89
2021/10/12 03:04:35;;;;;;;5.53;1.20;;;9.20;91.10;;;;;;5018157;28;20178;-89
2021/10/12 03:07:00;;;;;;;1.97;1.00;;;9.30;91.00;;;;;;5017725;28;20660;-89
2021/10/12 03:09:26;;;;;;;2.10;0.90;;;9.30;91.10;;;;;;5018478;28;20173;-90
2021/10/12 03:11:51;;;;;;;3.40;1.10;;;9.30;91.30;;;;;;5018096;28;20196;-89
2021/10/12 03:14:17;;;;;;;2.37;0.90;;;9.20;91.30;;;;;;5017866;28;20231;-89
2021/10/12 03:16:43;;;;;;;3.93;1.10;;;9.30;91.40;;;;;;5017586;28;20572;-90
2021/10/12 03:19:11;;;;;;;1.87;0.90;;;9.30;91.40;;;;;;5017508;28;20181;-90
2021/10/12 03:21:37;;;;;;;6.40;1.07;;;9.30;91.50;;;;;;5035393;28;20188;-89
2021/10/12 03:24:03;;;;;;;6.13;1.03;;;9.30;91.50;;;;;;5017047;28;20227;-90
2021/10/12 03:26:30;;;;;;;4.30;1.07;;;9.30;91.60;;;;;;5017170;28;20264;-89
2021/10/12 03:28:57;;;;;;;3.63;1.20;;;9.30;91.50;;;;;;5017305;28;20215;-89
2021/10/12 03:31:22;;;;;;;2.70;1.07;;;9.30;91.60;;;;;;5034852;28;20173;-89
2021/10/12 03:33:48;;;;;;;2.83;0.93;;;9.30;91.60;;;;;;5017093;28;20187;-89
2021/10/12 03:36:17;;;;;;;1.37;0.90;;;9.30;91.60;;;;;;5017173;28;20657;-89
2021/10/12 03:38:43;;;;;;;1.97;0.97;;;9.30;91.70;;;;;;5017342;28;20230;-89
2021/10/12 03:41:09;;;;;;;2.90;1.17;;;9.30;91.80;;;;;;5017041;28;20177;-89
2021/10/12 03:43:35;;;;;;;4.90;1.07;;;9.30;91.80;;;;;;5016923;28;20179;-89
2021/10/12 03:46:01;;;;;;;3.57;1.00;;;9.30;91.90;;;;;;5017005;28;20656;-89
2021/10/12 03:48:27;;;;;;;7.27;1.17;;;9.30;91.80;;;;;;5016864;28;20173;-89
2021/10/12 03:50:52;;;;;;;3.90;1.20;;;9.30;91.80;;;;;;5034826;28;20205;-89
2021/10/12 03:53:18;;;;;;;5.53;1.17;;;9.30;91.60;;;;;;5016628;28;20223;-89
2021/10/12 03:55:44;;;;;;;5.10;1.53;;;9.20;91.60;;;;;;5016742;28;20747;-90
2021/10/12 03:58:09;;;;;;;4.43;1.30;;;9.30;91.60;;;;;;5016683;28;20173;-89
2021/10/12 04:00:35;;;;;;;6.37;1.20;;;9.30;91.60;;;;;;5016940;28;20172;-89
2021/10/12 04:03:01;;;;;;;4.00;1.00;;;9.30;91.60;;;;;;5034862;28;20193;-90
2021/10/12 04:05:26;;;;;;;3.97;1.10;;;9.20;91.60;;;;;;5016773;28;20195;-90
2021/10/12 04:07:52;;;;;;;3.57;1.17;;;9.20;91.80;;;;;;5016608;28;20254;-90
2021/10/12 04:10:18;;;;;;;5.03;1.40;;;9.20;92.00;;;;;;5034200;28;20176;-90
2021/10/12 04:12:44;;;;;;;5.00;1.73;;;9.20;92.20;;;;;;5016377;28;20545;-89
2021/10/12 04:15:09;;;;;;;5.60;1.83;;;9.20;92.20;;;;;;5016389;28;20205;-89
2021/10/12 04:17:35;;;;;;;6.63;2.23;;;9.10;92.40;;;;;;5034357;28;20668;-89
2021/10/12 04:20:00;;;;;;;4.40;2.60;;;9.00;92.60;;;;;;5016759;28;20219;-90
2021/10/12 04:22:26;;;;;;;8.33;2.10;;;8.90;92.70;;;;;;5016257;28;20645;-89
2021/10/12 04:24:52;;;;;;;4.03;2.30;;;8.90;92.90;;;;;;5016628;28;20183;-89
2021/10/12 04:27:18;;;;;;;4.93;2.40;;;8.90;92.90;;;;;;5033874;28;20180;-89
2021/10/12 04:29:44;;;;;;;2.97;2.20;;;8.90;92.90;;;;;;5016931;28;20173;-90
2021/10/12 04:32:10;;;;;;;5.00;2.20;;;8.90;92.80;;;;;;5016059;28;20772;-90
2021/10/12 04:34:37;;;;;;;7.73;2.37;;;8.90;92.70;;;;;;5016684;28;20204;-90
2021/10/12 04:37:03;;;;;;;7.03;2.57;;;9.00;92.70;;;;;;5015422;28;20169;-90
2021/10/12 04:39:30;;;;;;;7.70;2.80;;;9.00;92.80;;;;;;5016068;28;20176;-90
2021/10/12 04:41:58;;;;;;;5.97;3.00;;;9.00;92.90;;;;;;5015938;28;20192;-90
2021/10/12 04:44:28;;;;;;;3.53;2.70;;;9.00;92.90;;;;;;5033978;28;20644;-90
2021/10/12 04:46:54;;;;;;;8.40;2.50;;;9.00;92.80;;;;;;5016255;28;20644;-89
2021/10/12 04:49:20;;;;;;;9.23;2.60;;;8.90;92.80;;;;;;5016204;28;20188;-89
2021/10/12 04:51:46;;;;;;;2.50;2.10;;;8.90;92.70;;;;;;5015644;28;20215;-89
2021/10/12 04:54:12;;;;;;;6.60;2.83;;;8.90;92.60;;;;;;5033411;28;20228;-89
2021/10/12 04:56:39;;;;;;;9.70;2.93;;;8.90;92.70;;;;;;5033707;28;20271;-90
2021/10/12 04:59:04;;;;;;;8.30;2.90;;;8.90;92.70;;;;;;5033436;28;20176;-90
2021/10/12 05:01:30;;;;;;;6.53;2.43;;;8.90;92.60;;;;;;5033352;28;20231;-89
2021/10/12 05:03:56;;;;;;;8.17;2.60;;;8.80;92.70;;;;;;5015703;28;20180;-89
2021/10/12 05:06:22;;;;;;;6.43;3.00;;;8.80;92.70;;;;;;5015784;28;20556;-89
2021/10/12 05:08:47;;;;;;;5.13;2.63;;;8.70;92.70;;;;;;5033720;28;20196;-90
2021/10/12 05:11:13;;;;;;;8.37;2.87;;;8.80;92.70;;;;;;5015883;28;20183;-89
2021/10/12 05:13:39;;;;;;;8.20;2.97;;;8.70;92.70;;;;;;5015677;28;20181;-90
2021/10/12 05:16:10;;;;;;;7.57;2.97;;;8.70;92.80;;;;;;5015627;28;20201;-89
2021/10/12 05:18:37;;;;;;;9.93;2.70;;;8.50;92.80;;;;;;5033604;28;20154;-89
2021/10/12 05:21:03;;;;;;;5.30;2.20;;;8.60;92.80;;;;;;5016011;28;20599;-90
2021/10/12 05:23:29;;;;;;;9.00;2.67;;;8.60;92.80;;;;;;5016577;28;20196;-90
2021/10/12 05:25:55;;;;;;;5.63;2.60;;;8.50;92.90;;;;;;5033168;28;20608;-90
2021/10/12 05:28:21;;;;;;;6.23;2.90;;;8.50;93.00;;;;;;5033140;28;20287;-89
2021/10/12 05:30:47;;;;;;;5.47;3.40;;;8.60;93.10;;;;;;5015577;28;20184;-89
2021/10/12 05:33:15;;;;;;;6.23;3.43;;;8.60;93.10;;;;;;5033294;28;20665;-90
2021/10/12 05:35:42;;;;;;;6.00;2.93;;;8.60;93.30;;;;;;5032989;28;20266;-90
2021/10/12 05:38:07;;;;;;;5.57;2.30;;;8.60;93.20;;;;;;5015447;28;20177;-90
2021/10/12 05:40:33;;;;;;;8.40;2.80;;;8.60;93.20;;;;;;5015765;28;20183;-90
2021/10/12 05:42:59;;;;;;;9.07;3.27;;;8.60;93.20;;;;;;5032901;28;20575;-90
2021/10/12 05:45:24;;;;;;;6.17;3.00;;;8.70;93.20;;;;;;5032998;28;20219;-90
2021/10/12 05:47:50;;;;;;;5.50;2.60;;;8.70;93.20;;;;;;5017168;28;20176;-90
2021/10/12 05:50:16;;;;;;;10.23;3.20;;;8.70;93.10;;;;;;5019391;28;20187;-90
2021/10/12 05:52:49;;;;;;;9.70;3.23;;;8.70;93.10;;;;;;5018919;28;20680;-90
2021/10/12 05:55:21;;;;;;;5.63;2.77;;;8.80;93.00;;;;;;5018952;28;20679;-90
2021/10/12 05:58:06;;;;;;;10.07;3.00;;;8.80;92.90;;;;;;5019007;28;20172;-89
2021/10/12 06:00:33;;;;;;;11.07;3.10;;;8.70;92.80;;;;;;5036928;28;20160;-89
2021/10/12 06:02:59;;;;;;;6.33;2.70;;;8.70;92.80;;;;;;5019179;28;20580;-89
2021/10/12 06:05:25;;;;;;;5.77;2.50;;;8.70;92.70;;;;;;5036546;28;20188;-90
2021/10/12 06:07:50;;;;;;;10.03;2.77;;;8.70;92.70;;;;;;5018831;28;20598;-90
2021/10/12 06:10:16;;;;;;;9.50;2.30;;;8.70;92.70;;;;;;5018805;28;20180;-90
2021/10/12 06:12:42;;;;;;;8.17;2.70;;;8.70;92.50;;;;;;5018707;28;20709;-90
2021/10/12 06:15:08;;;;;;;10.73;2.63;;;8.60;92.50;;;;;;5018933;28;20674;-90
2021/10/12 06:17:33;;;;;;;11.60;3.20;;;8.60;92.50;;;;;;5036364;28;20224;-90
2021/10/12 06:19:59;;;;;;;5.90;2.27;;;8.60;92.40;;;;;;5036245;28;20176;-90
2021/10/12 06:22:24;;;;;;;8.53;2.30;;;8.60;92.40;;;;;;5036196;28;20533;-90
2021/10/12 06:24:50;;;;;;;6.43;1.90;;;8.50;92.30;;;;;;5018789;28;20187;-90
2021/10/12 06:27:16;;;;;;;8.57;2.60;;;8.50;92.20;;;;;;5018818;28;20212;-89
2021/10/12 06:29:41;;;;;;;5.33;2.00;;;8.50;92.20;;;;;;5018357;28;20631;-89
2021/10/12 06:32:07;;;;;;;11.57;2.40;;;8.60;92.20;;;;;;5018409;28;20713;-90
2021/10/12 06:34:33;;;;;;;8.30;2.47;;;8.50;92.10;;;;;;5018322;28;20302;-90
2021/10/12 06:36:58;;;;;;;8.57;2.33;;;8.60;92.10;;;;;;5018519;28;20208;-90
2021/10/12 06:39:24;;;;;;;12.03;2.50;;;8.60;91.90;;;;;;5018745;28;20208;-90
2021/10/12 06:41:49;;;;;;;10.00;2.43;;;8.60;91.80;;;;;;5019135;28;20254;-91
2021/10/12 06:44:15;;;;;;;10.37;1.90;;;8.70;91.80;;;;;;5018209;28;20715;-91
2021/10/12 06:46:41;;;;;;;8.90;2.23;;;8.70;91.60;;;;;;5035847;28;20173;-91
2021/10/12 06:49:06;;;;;;;12.97;2.47;;;8.70;91.40;;;;;;5018106;28;20184;-90
2021/10/12 06:51:32;;;;;;;9.73;2.00;;;8.70;91.20;;;;;;5018061;28;20213;-90
2021/10/12 06:53:58;;;;;;;6.73;2.00;;;8.70;90.90;;;;;;5018280;28;20323;-90
2021/10/12 06:56:24;;;;;;;5.57;1.87;;;8.70;90.40;;;;;;5035727;28;20702;-90
2021/10/12 06:58:50;;;;;;;8.00;1.87;;;8.70;90.40;;;;;;5017585;28;20240;-90
2021/10/12 07:01:15;;;;;;;6.83;1.63;;;8.80;90.30;;;;;;5018680;28;20204;-91
2021/10/12 07:03:41;;;;;;;8.57;1.70;;;8.80;89.70;;;;;;5017789;28;20259;-90
2021/10/12 07:06:07;;;;;;;8.17;2.07;;;8.80;89.70;;;;;;5017825;28;20239;-91
2021/10/12 07:08:32;;;;;;;5.53;1.60;;;8.70;89.70;;;;;;5035444;28;20180;-91
2021/10/12 07:10:58;;;;;;;10.70;2.47;;;8.70;89.70;;;;;;5035711;28;20252;-90
2021/10/12 07:13:28;;;;;;;5.13;1.50;;;8.70;89.60;;;;;;5017884;28;20203;-90
2021/10/12 07:15:55;;;;;;;5.63;1.80;;;8.70;89.30;;;;;;5017726;28;20255;-90
2021/10/12 07:18:21;;;;;;;6.27;1.50;;;8.70;89.10;;;;;;5017978;28;20177;-90
2021/10/12 07:20:47;;;;;;;11.43;1.87;;;8.70;88.90;;;;;;5017940;28;20271;-91
2021/10/12 07:23:12;;;;;;;6.17;1.40;;;8.70;88.90;;;;;;5017760;28;20196;-90
2021/10/12 07:25:38;;;;;;;9.27;1.63;;;8.70;88.80;;;;;;5035139;28;20208;-90
2021/10/12 07:28:04;;;;;;;6.73;1.60;;;8.80;88.60;;;;;;5017665;28;20267;-90
2021/10/12 07:30:29;;;;;;;8.40;1.53;;;8.80;88.20;;;;;;5017302;28;20184;-91
2021/10/12 07:32:55;;;;;;;6.77;1.60;;;8.80;87.80;;;;;;5017279;28;20232;-90
2021/10/12 07:35:21;;;;;;;8.60;1.90;;;8.80;87.70;;;;;;5017448;28;20205;-90
2021/10/12 07:37:46;;;;;;;5.33;1.30;;;8.90;87.90;;;;;;5018186;28;20180;-91
2021/10/12 07:40:12;;;;;;;6.47;1.70;;;8.90;87.80;;;;;;5017424;28;20187;-91
2021/10/12 07:42:38;;;;;;;11.63;2.47;;;8.90;87.60;;;;;;5017366;28;20193;-91
2021/10/12 07:45:05;;;;;;;13.30;1.90;;;8.90;87.40;;;;;;5017389;28;20233;-90
2021/10/12 07:47:30;;;;;;;12.33;1.83;;;9.00;87.00;;;;;;5017314;28;20185;-90
2021/10/12 07:49:56;;;;;;;8.60;1.70;;;9.00;87.00;;;;;;5016885;28;20188;-90
2021/10/12 07:52:22;;;;;;;9.13;2.10;;;9.00;86.80;;;;;;5074471;23;20649;-90
2021/10/12 07:54:51;;;;;;;6.57;1.37;;;9.10;86.50;;;;;;5016856;28;20291;-91
2021/10/12 07:57:18;;;;;;;6.20;1.40;;;9.10;86.40;;;;;;5034462;28;20272;-90
2021/10/12 07:59:44;;;;;;;5.17;1.70;;;9.20;86.00;;;;;;5034264;28;20200;-91
2021/10/12 08:02:16;;;;;;;8.63;1.53;;;9.20;85.70;;;;;;5016452;28;20199;-90
2021/10/12 08:04:42;;;;;;;7.63;1.70;;;9.30;85.30;;;;;;5016511;28;20165;-90
2021/10/12 08:07:08;;;;;;;11.70;1.70;;;9.30;84.80;;;;;;5016474;28;20188;-91
2021/10/12 08:09:35;;;;;;;8.37;1.40;;;9.20;84.40;;;;;;5034087;28;20165;-91
2021/10/12 08:12:02;;;;;;;5.80;1.93;;;9.20;84.90;;;;;;5015374;28;20204;-91
2021/10/12 08:14:28;;;;;;;13.43;1.87;;;9.30;85.10;;;;;;5034037;28;20203;-91
2021/10/12 08:16:54;;;;;;;10.40;2.03;;;9.30;85.30;;;;;;5016676;28;20184;-91
2021/10/12 08:19:19;;;;;;;6.50;1.60;;;9.30;84.40;;;;;;5016301;28;20176;-91
2021/10/12 08:21:45;;;;;;;10.40;1.97;;;9.30;84.60;;;;;;5016202;28;20191;-91
2021/10/12 08:24:12;;;;;;;6.60;1.50;;;9.40;85.00;;;;;;5017011;28;20311;-91
2021/10/12 08:26:39;;;;;;;9.40;1.50;;;9.50;84.40;;;;;;5033851;28;20172;-91
2021/10/12 08:29:05;;;;;;;6.77;2.17;;;9.60;83.70;;;;;;5016709;28;20173;-92
2021/10/12 08:31:31;;;;;;;7.17;1.80;;;9.60;84.30;;;;;;5016077;28;20179;-92
2021/10/12 08:33:56;;;;;;;9.27;1.70;;;9.60;84.10;;;;;;5015972;28;20188;-90
2021/10/12 08:36:22;;;;;;;8.50;1.80;;;9.70;83.60;;;;;;5016333;28;20173;-92
2021/10/12 08:38:53;;;;;;;8.57;1.63;;;9.70;83.90;;;;;;5016020;28;20176;-91
2021/10/12 08:41:24;;;;;;;7.37;2.20;;;9.80;83.20;;;;;;5016945;28;20183;-92
2021/10/12 08:43:52;;;;;;;6.13;1.60;;;9.90;84.20;;;;;;5015936;28;20196;-89
2021/10/12 08:46:20;;;;;;;8.30;1.70;;;9.90;83.50;;;;;;5016569;28;20740;-91
2021/10/12 08:48:45;;;;;;;9.37;2.13;;;10.00;83.10;;;;;;5033787;28;20256;-90
2021/10/12 08:51:11;;;;;;;8.67;2.20;;;10.10;83.20;;;;;;5015784;28;20259;-91
2021/10/12 08:53:37;;;;;;;10.67;1.90;;;10.00;82.60;;;;;;5015655;28;20344;-91
2021/10/12 08:56:02;;;;;;;7.83;1.73;;;10.10;80.90;;;;;;5015703;28;20212;-91
2021/10/12 08:58:28;;;;;;;6.47;1.40;;;10.20;82.00;;;;;;5015981;28;20547;-91
2021/10/12 09:01:08;;;;;;;10.17;1.73;;;10.30;80.90;;;;;;5033692;28;20172;-92
2021/10/12 09:04:02;;;;;;;6.80;2.57;;;10.30;80.80;;;;;;5015623;28;20218;-91
2021/10/12 09:06:30;;;;;;;8.80;1.80;;;10.40;81.00;;;;;;5033586;28;20181;-92
2021/10/12 09:08:58;;;;;;;7.33;1.80;;;10.50;81.20;;;;;;5016374;28;20259;-91
2021/10/12 09:11:25;;;;;;;6.60;1.40;;;10.60;80.40;;;;;;5015435;28;20230;-89
2021/10/12 09:13:58;;;;;;;9.30;2.90;;;10.60;79.30;;;;;;5015493;28;20189;-91
2021/10/12 09:16:32;;;;;;;7.43;2.30;;;10.60;80.50;;;;;;5015492;28;20195;-91
2021/10/12 09:18:59;;;;;;;7.23;2.67;;;10.80;80.80;;;;;;5015479;28;20172;-90
2021/10/12 09:21:30;;;;;;;6.43;1.60;;;10.90;80.80;;;;;;5015478;28;20598;-91
2021/10/12 09:24:12;;;;;;;13.33;1.60;;;11.00;79.40;;;;;;5018970;28;20172;-91
2021/10/12 09:26:41;;;;;;;7.60;1.80;;;11.00;79.40;;;;;;5019841;28;20637;-93
2021/10/12 09:29:17;;;;;;;8.63;1.60;;;11.20;79.90;;;;;;5021867;28;20230;-92
2021/10/12 09:31:49;;;;;;;11.93;2.13;;;11.10;77.40;;;;;;5019915;28;20156;-92
2021/10/12 09:34:18;;;;;;;6.93;1.80;;;11.20;77.80;;;;;;5020028;28;20211;-92
2021/10/12 09:36:46;;;;;;;12.10;2.23;;;11.20;77.60;;;;;;5019583;28;20204;-91
2021/10/12 09:39:28;;;;;;;8.83;1.70;;;11.30;78.10;;;;;;5020672;28;20675;-93
2021/10/12 09:42:20;;;;;;;5.77;1.40;;;11.30;78.40;;;;;;5020622;28;20192;-92
2021/10/12 09:44:58;;;;;;;6.17;1.40;;;11.40;76.80;;;;;;5021862;28;20176;-92
2021/10/12 09:47:24;;;;;;;4.60;1.50;;;11.50;77.00;;;;;;5020637;28;20279;-91
2021/10/12 09:50:09;;;;;;;8.40;2.47;;;11.50;77.10;;;;;;5019896;28;20180;-92
2021/10/12 09:52:42;;;;;;;10.53;2.07;;;11.60;75.00;;;;;;5020788;28;20219;-92
2021/10/12 09:55:09;;;;;;;10.33;1.60;;;11.70;74.90;;;;;;5022292;28;20235;-93
2021/10/12 09:57:36;;;;;;;10.63;1.80;;;11.70;75.50;;;;;;5021607;28;20203;-92
2021/10/12 10:00:03;;;;;;;9.53;2.23;;;11.70;75.20;;;;;;5018978;28;20238;-92
2021/10/12 10:02:28;;;;;;;5.87;1.67;;;11.80;75.40;;;;;;5018886;28;20192;-92
2021/10/12 10:04:56;;;;;;;6.90;1.37;;;11.90;74.80;;;;;;5019018;28;20544;-92
2021/10/12 10:07:37;;;;;;;11.30;2.00;;;12.00;75.40;;;;;;5018870;28;20177;-92
2021/10/12 10:10:05;;;;;;;12.10;1.90;;;12.20;76.50;;;;;;5019114;28;20165;-90
2021/10/12 10:12:34;;;;;;;5.87;1.63;;;12.00;74.70;;;;;;5019271;28;20193;-92
2021/10/12 10:15:00;;;;;;;6.27;1.83;;;12.00;75.30;;;;;;5018996;28;20231;-92
2021/10/12 10:17:26;;;;;;;7.40;1.80;;;12.20;74.70;;;;;;5020073;28;20675;-93
2021/10/12 10:19:52;;;;;;;7.00;1.40;;;12.30;75.00;;;;;;5022064;28;20173;-93
2021/10/12 10:22:34;;;;;;;8.70;1.57;;;12.40;75.20;;;;;;5019862;28;20203;-93
2021/10/12 10:25:00;;;;;;;6.83;1.37;;;12.60;74.10;;;;;;5019298;28;20207;-90
2021/10/12 10:27:39;;;;;;;5.30;1.50;;;12.80;74.30;;;;;;5019183;28;20181;-92
2021/10/12 10:30:28;;;;;;;7.37;2.23;;;12.80;72.20;;;;;;5036166;28;20165;-90
2021/10/12 10:33:00;;;;;;;4.70;1.40;;;12.70;72.00;;;;;;5018259;28;20200;-91
2021/10/12 10:35:43;;;;;;;9.80;1.77;;;12.80;71.50;;;;;;5017225;28;20197;-91
2021/10/12 10:38:21;;;;;;;7.40;1.33;;;12.80;69.20;;;;;;5018190;28;20211;-90
2021/10/12 10:41:12;;;;;;;7.70;1.50;;;12.90;68.40;;;;;;5019447;28;20168;-91
2021/10/12 10:44:01;;;;;;;4.83;1.80;;;12.90;70.90;;;;;;5018201;28;20259;-91
2021/10/12 10:46:35;;;;;;;8.50;1.80;;;13.20;71.20;;;;;;5019241;28;20161;-91
2021/10/12 10:49:10;;;;;;;6.33;1.43;;;13.20;68.10;;;;;;5036352;28;20178;-90
2021/10/12 10:51:49;;;;;;;7.23;1.80;;;13.10;67.20;;;;;;5017897;28;20190;-90
2021/10/12 10:54:40;;;;;;;6.30;1.40;;;13.20;69.70;;;;;;5020713;28;20180;-93
2021/10/12 10:57:20;;;;;;;8.33;1.60;;;13.20;68.90;;;;;;5022615;28;20176;-93
2021/10/12 10:59:47;;;;;;;7.63;1.60;;;13.40;68.10;;;;;;5032152;28;20176;-93
2021/10/12 11:02:33;;;;;;;5.60;1.57;;;13.50;68.80;;;;;;5034368;28;20291;-93
2021/10/12 11:04:58;;;;;;;5.93;1.60;;;13.70;68.90;;;;;;5019228;28;20686;-89
2021/10/12 11:07:26;;;;;;;34.37;2.43;;;13.70;67.00;;;;;;5018532;28;20181;-91
2021/10/12 11:09:53;;;;;;;7.27;1.40;;;13.80;67.00;;;;;;5018101;28;20176;-92
2021/10/12 11:12:29;;;;;;;8.10;1.27;;;13.70;66.90;;;;;;5018292;28;20189;-91
2021/10/12 11:15:08;;;;;;;5.40;1.43;;;13.80;68.60;;;;;;5017815;28;20200;-91
2021/10/12 11:17:34;;;;;;;4.93;1.50;;;13.80;67.40;;;;;;5018847;28;20165;-91
2021/10/12 11:20:03;;;;;;;8.57;1.83;;;13.70;67.40;;;;;;5018095;28;20212;-92
2021/10/12 11:22:29;;;;;;;4.27;1.43;;;13.70;68.70;;;;;;5018533;28;20219;-91
2021/10/12 11:24:57;;;;;;;9.53;1.60;;;13.90;68.80;;;;;;5017666;28;20180;-92
2021/10/12 11:27:23;;;;;;;5.00;1.37;;;14.10;66.60;;;;;;5035730;28;20202;-91
2021/10/12 11:30:09;;;;;;;7.27;1.37;;;14.00;66.70;;;;;;5017499;28;20181;-91
2021/10/12 11:32:35;;;;;;;7.87;2.43;;;13.90;64.80;;;;;;5017306;28;20203;-90
2021/10/12 11:35:08;;;;;;;7.90;1.47;;;13.70;65.90;;;;;;5037251;28;20275;-92
2021/10/12 11:37:34;;;;;;;7.53;1.20;;;13.60;67.70;;;;;;5019322;28;20272;-92
2021/10/12 11:40:16;;;;;;;8.77;1.30;;;13.80;66.90;;;;;;5018512;28;20601;-91
2021/10/12 11:42:43;;;;;;;3.93;1.10;;;13.80;66.50;;;;;;5018195;28;20197;-92
2021/10/12 11:45:09;;;;;;;7.23;1.53;;;14.20;66.80;;;;;;5018077;28;20313;-91
2021/10/12 11:47:35;;;;;;;4.33;1.50;;;14.40;63.30;;;;;;5017266;28;20263;-92
2021/10/12 11:50:11;;;;;;;6.63;1.40;;;14.10;62.90;;;;;;5017099;28;20238;-91
2021/10/12 11:52:36;;;;;;;6.00;1.70;;;13.90;65.60;;;;;;5017203;28;20208;-92
2021/10/12 11:55:10;;;;;;;4.43;1.23;;;13.60;66.80;;;;;;5017357;28;20227;-92
2021/10/12 11:57:37;;;;;;;5.97;1.50;;;13.50;65.30;;;;;;5017348;28;20204;-92
2021/10/12 12:00:07;;;;;;;6.20;1.33;;;13.30;67.20;;;;;;5017382;28;20172;-92
2021/10/12 12:02:33;;;;;;;10.10;1.67;;;13.20;68.80;;;;;;5017346;28;20199;-92
2021/10/12 12:04:59;;;;;;;8.57;1.50;;;13.30;67.60;;;;;;5017763;28;20225;-92
2021/10/12 12:07:31;;;;;;;8.73;1.50;;;13.20;67.80;;;;;;5017682;28;20184;-92
2021/10/12 12:09:57;;;;;;;5.83;1.50;;;13.20;69.00;;;;;;5017843;28;20180;-92
2021/10/12 12:12:23;;;;;;;5.00;1.50;;;13.30;68.00;;;;;;5017292;28;20200;-92
2021/10/12 12:14:50;;;;;;;10.67;1.70;;;13.20;68.90;;;;;;5016613;28;20201;-91
2021/10/12 12:17:27;;;;;;;9.03;1.60;;;13.10;68.80;;;;;;5016958;28;20184;-92
2021/10/12 12:20:12;;;;;;;5.33;1.40;;;12.90;69.90;;;;;;5016596;28;20196;-93
2021/10/12 12:22:43;;;;;;;3.83;1.30;;;13.00;70.20;;;;;;5016672;28;20228;-93
2021/10/12 12:25:11;;;;;;;8.37;1.40;;;13.10;70.10;;;;;;5016292;28;20559;-93
2021/10/12 12:28:00;;;;;;;11.37;2.17;;;13.20;67.70;;;;;;5016303;28;20183;-92
2021/10/12 12:30:32;;;;;;;9.27;1.50;;;13.30;69.80;;;;;;5016325;28;20176;-92
2021/10/12 12:32:59;;;;;;;6.23;1.83;;;13.30;69.50;;;;;;5016822;28;20196;-93
2021/10/12 12:35:25;;;;;;;8.30;1.50;;;13.50;69.30;;;;;;5033831;28;20207;-92
2021/10/12 12:38:03;;;;;;;5.83;1.70;;;13.80;68.50;;;;;;5016140;28;20176;-91
2021/10/12 12:40:34;;;;;;;5.13;1.50;;;14.10;68.60;;;;;;5016283;28;20171;-92
2021/10/12 12:43:19;;;;;;;4.30;1.70;;;14.40;67.40;;;;;;5016335;28;20189;-92
2021/10/12 12:45:45;;;;;;;5.73;1.30;;;14.60;67.70;;;;;;5016903;28;20195;-92
2021/10/12 12:48:11;;;;;;;3.50;1.13;;;14.50;68.50;;;;;;5016444;28;20180;-93
2021/10/12 12:50:38;;;;;;;9.80;1.40;;;14.60;65.60;;;;;;5016717;28;20177;-93
2021/10/12 12:53:06;;;;;;;6.13;1.43;;;14.70;66.50;;;;;;5033383;28;20692;-93
2021/10/12 12:55:38;;;;;;;2.87;1.07;;;14.10;67.80;;;;;;5015749;28;20196;-92
2021/10/12 12:58:04;;;;;;;3.20;1.20;;;13.60;69.80;;;;;;5015499;28;20604;-92